Wimberley, Texas
Current Conditions -  °F | °C
As of 2:50 PM on Thursday 20 Nov 2014 (Local Time) from KHYI Reporting Station
Broken Clouds Broken Clouds  
Wind Chill: 70°   Ceiling: 3100
Heat Index: 70°   Visibility: 10mi
Dew Point: 59°   Wind: 12mph
Humidity: 68%   Direction: 210°SSW
Pressure: 30.04"   Gusts: NA
Location:  29.99°N, 98.1°W
Report Text: KHYI 202050Z 21010KT 10SM SCT021 BKN031 BKN039 21/15 A3004
Loading
Personal Weather Stations






























Interactive Weather Map New forecast layout! Learn more

10-Day Weather Forecast

Advertisements
Track Severe Weather on mobile